createdAt,value
2023-02-05T00:00:16.409Z,8.30
2023-02-05T00:02:43.975Z,8.20
2023-02-05T00:05:11.509Z,8.30
2023-02-05T00:07:39.042Z,8.30
2023-02-05T00:10:06.743Z,8.30
2023-02-05T00:12:34.268Z,8.30
2023-02-05T00:15:01.803Z,8.30
2023-02-05T00:17:29.389Z,8.30
2023-02-05T00:19:56.922Z,8.20
2023-02-05T00:22:25.222Z,8.20
2023-02-05T00:24:52.762Z,8.20
2023-02-05T00:27:20.293Z,8.20
2023-02-05T00:29:47.828Z,8.20
2023-02-05T00:32:15.393Z,8.20
2023-02-05T00:34:42.940Z,8.20
2023-02-05T00:37:10.454Z,8.20
2023-02-05T00:39:38.036Z,8.20
2023-02-05T00:42:05.572Z,8.20
2023-02-05T00:44:33.864Z,8.20
2023-02-05T00:47:01.421Z,8.20
2023-02-05T00:49:28.972Z,8.20
2023-02-05T00:51:56.509Z,8.10
2023-02-05T00:54:25.569Z,8.10
2023-02-05T00:56:53.093Z,8.10
2023-02-05T00:59:20.944Z,8.10
2023-02-05T01:01:48.981Z,8.00
2023-02-05T01:04:16.536Z,8.10
2023-02-05T01:06:44.065Z,8.30
2023-02-05T01:09:11.628Z,8.30
2023-02-05T01:11:39.162Z,8.20
2023-02-05T01:14:06.707Z,8.20
2023-02-05T01:16:35.050Z,8.10
2023-02-05T01:19:02.598Z,8.10
2023-02-05T01:21:30.129Z,8.10
2023-02-05T01:23:57.752Z,8.00
2023-02-05T01:26:25.253Z,8.00
2023-02-05T01:28:52.790Z,7.90
2023-02-05T01:31:20.404Z,7.90
2023-02-05T01:33:47.882Z,7.90
2023-02-05T01:36:15.411Z,7.90
2023-02-05T01:38:42.985Z,7.80
2023-02-05T01:41:10.518Z,7.80
2023-02-05T01:43:38.062Z,7.80
2023-02-05T01:46:14.789Z,7.80
2023-02-05T01:48:42.268Z,7.80
2023-02-05T01:51:10.552Z,7.80
2023-02-05T01:53:38.103Z,7.80
2023-02-05T01:56:05.628Z,7.80
2023-02-05T01:58:33.174Z,7.80
2023-02-05T02:01:01.033Z,7.80
2023-02-05T02:03:28.560Z,7.80
2023-02-05T02:05:56.078Z,8.10
2023-02-05T02:08:23.649Z,8.10
2023-02-05T02:10:51.949Z,8.00
2023-02-05T02:13:19.503Z,8.00
2023-02-05T02:15:47.089Z,8.00
2023-02-05T02:18:27.356Z,7.90
2023-02-05T02:21:10.786Z,7.90
2023-02-05T02:23:41.009Z,7.90
2023-02-05T02:26:16.995Z,7.80
2023-02-05T02:29:02.648Z,7.80
2023-02-05T02:31:30.280Z,7.80
2023-02-05T02:34:03.512Z,7.80
2023-02-05T02:36:52.511Z,7.80
2023-02-05T02:39:29.045Z,7.80
2023-02-05T02:42:15.120Z,8.00
2023-02-05T02:44:48.376Z,8.00
2023-02-05T02:47:18.395Z,8.00
2023-02-05T02:49:45.939Z,7.90
2023-02-05T02:52:14.244Z,7.90
2023-02-05T02:54:41.780Z,7.80
2023-02-05T02:57:10.422Z,8.10
2023-02-05T02:59:37.932Z,8.10
2023-02-05T03:02:05.466Z,8.10
2023-02-05T03:04:35.475Z,8.00
2023-02-05T03:07:03.001Z,8.00
2023-02-05T03:09:49.087Z,7.90
2023-02-05T03:12:16.609Z,7.90
2023-02-05T03:14:44.918Z,7.80
2023-02-05T03:17:12.752Z,7.80
2023-02-05T03:19:41.097Z,7.80
2023-02-05T03:22:08.592Z,7.80
2023-02-05T03:24:36.922Z,7.80
2023-02-05T03:27:04.459Z,7.80
2023-02-05T03:29:31.980Z,7.80
2023-02-05T03:32:15.439Z,7.80
2023-02-05T03:34:54.719Z,7.70
2023-02-05T03:37:28.012Z,7.80
2023-02-05T03:40:10.334Z,7.70
2023-02-05T03:42:52.828Z,7.70
2023-02-05T03:45:23.313Z,8.00
2023-02-05T03:47:53.304Z,8.00
2023-02-05T03:50:24.824Z,7.90
2023-02-05T03:52:52.361Z,7.90
2023-02-05T03:55:19.920Z,7.80
2023-02-05T03:57:53.093Z,8.00
2023-02-05T04:00:20.606Z,8.00
2023-02-05T04:02:48.894Z,7.80
2023-02-05T04:05:17.228Z,7.80
2023-02-05T04:07:44.763Z,7.80
2023-02-05T04:10:12.302Z,7.70
2023-02-05T04:12:39.874Z,7.80
2023-02-05T04:15:07.479Z,7.70
2023-02-05T04:17:35.002Z,7.70
2023-02-05T04:20:02.545Z,7.70
2023-02-05T04:22:30.079Z,7.60
2023-02-05T04:24:58.393Z,7.60
2023-02-05T04:27:25.958Z,7.60
2023-02-05T04:29:53.494Z,7.60
2023-02-05T04:32:21.042Z,7.80
2023-02-05T04:34:50.184Z,7.80
2023-02-05T04:37:17.719Z,7.80
2023-02-05T04:39:45.262Z,7.80
2023-02-05T04:42:13.577Z,7.80
2023-02-05T04:44:41.115Z,7.80
2023-02-05T04:47:08.635Z,7.70
2023-02-05T04:49:36.988Z,7.70
2023-02-05T04:52:04.526Z,7.70
2023-02-05T04:54:32.056Z,7.70
2023-02-05T04:56:59.623Z,7.70
2023-02-05T04:59:27.187Z,7.70
2023-02-05T05:01:55.439Z,7.70
2023-02-05T05:04:23.014Z,7.70
2023-02-05T05:06:50.548Z,7.70
2023-02-05T05:09:18.861Z,7.70
2023-02-05T05:11:46.434Z,7.70
2023-02-05T05:14:13.968Z,7.70
2023-02-05T05:16:41.493Z,7.70
2023-02-05T05:19:09.930Z,7.60
2023-02-05T05:21:37.378Z,7.70
2023-02-05T05:24:04.898Z,7.70
2023-02-05T05:26:33.231Z,7.90
2023-02-05T05:29:00.783Z,7.90
2023-02-05T05:31:28.331Z,7.90
2023-02-05T05:33:55.901Z,7.90
2023-02-05T05:36:23.433Z,7.80
2023-02-05T05:38:50.980Z,7.80
2023-02-05T05:41:40.101Z,7.80
2023-02-05T05:44:07.637Z,7.80
2023-02-05T05:46:35.191Z,7.70
2023-02-05T05:49:02.758Z,8.00
2023-02-05T05:51:30.286Z,8.00
2023-02-05T05:53:57.813Z,7.90
2023-02-05T05:56:25.389Z,7.90
2023-02-05T05:58:53.687Z,7.80
2023-02-05T06:01:21.234Z,7.80
2023-02-05T06:03:49.564Z,7.80
2023-02-05T06:06:17.121Z,7.80
2023-02-05T06:08:44.624Z,7.70
2023-02-05T06:11:12.508Z,7.70
2023-02-05T06:13:40.051Z,7.70
2023-02-05T06:16:08.380Z,7.70
2023-02-05T06:18:35.917Z,7.60
2023-02-05T06:21:03.446Z,7.60
2023-02-05T06:23:31.029Z,7.60
2023-02-05T06:25:58.579Z,7.60
2023-02-05T06:28:26.118Z,7.60
2023-02-05T06:30:53.731Z,7.60
2023-02-05T06:33:21.229Z,7.60
2023-02-05T06:35:49.537Z,7.80
2023-02-05T06:38:17.118Z,7.80
2023-02-05T06:40:44.686Z,7.80
2023-02-05T06:43:12.240Z,7.70
2023-02-05T06:45:39.772Z,7.70
2023-02-05T06:48:07.331Z,7.90
2023-02-05T06:50:34.870Z,7.80
2023-02-05T06:53:02.425Z,7.80
2023-02-05T06:55:30.747Z,7.70
2023-02-05T06:57:58.289Z,7.60
2023-02-05T07:00:25.829Z,7.60
2023-02-05T07:02:54.212Z,7.50
2023-02-05T07:05:21.725Z,7.50
2023-02-05T07:07:49.977Z,7.50
2023-02-05T07:10:16.842Z,7.50
2023-02-05T07:12:44.377Z,7.40
2023-02-05T07:15:11.958Z,7.40
2023-02-05T07:17:39.537Z,7.60
2023-02-05T07:20:07.088Z,7.60
2023-02-05T07:22:34.613Z,7.60
2023-02-05T07:25:04.212Z,7.50
2023-02-05T07:27:29.736Z,7.50
2023-02-05T07:29:57.286Z,7.40
2023-02-05T07:32:25.597Z,7.40
2023-02-05T07:34:53.127Z,7.40
2023-02-05T07:37:21.635Z,7.40
2023-02-05T07:39:49.146Z,7.40
2023-02-05T07:42:16.670Z,7.40
2023-02-05T07:44:44.981Z,7.40
2023-02-05T07:47:12.544Z,7.30
2023-02-05T07:49:40.089Z,7.30
2023-02-05T07:52:07.649Z,7.30
2023-02-05T07:54:35.225Z,7.30
2023-02-05T07:57:03.248Z,7.20
2023-02-05T07:59:30.308Z,7.20
2023-02-05T08:01:58.650Z,7.20
2023-02-05T08:04:26.215Z,7.20
2023-02-05T08:06:53.720Z,7.20
2023-02-05T08:09:21.568Z,7.40
2023-02-05T08:11:49.872Z,7.50
2023-02-05T08:14:17.441Z,7.50
2023-02-05T08:16:45.119Z,7.50
2023-02-05T08:19:15.855Z,7.50
2023-02-05T08:21:43.338Z,7.50
2023-02-05T08:24:11.260Z,7.50
2023-02-05T08:26:38.789Z,7.60
2023-02-05T08:29:06.323Z,7.60
2023-02-05T08:31:33.944Z,7.60
2023-02-05T08:34:01.471Z,7.60
2023-02-05T08:36:29.000Z,7.60
2023-02-05T08:38:56.571Z,7.60
2023-02-05T08:41:24.859Z,7.60
2023-02-05T08:43:53.180Z,7.70
2023-02-05T08:46:20.773Z,7.70
2023-02-05T08:48:48.303Z,7.70
2023-02-05T08:51:15.861Z,7.70
2023-02-05T08:53:43.406Z,7.70
2023-02-05T08:56:11.108Z,7.80
2023-02-05T08:58:39.238Z,7.80
2023-02-05T09:01:10.195Z,7.80
2023-02-05T09:03:38.441Z,7.80
2023-02-05T09:06:05.985Z,7.80
2023-02-05T09:08:34.988Z,7.90
2023-02-05T09:11:02.780Z,7.90
2023-02-05T09:13:30.301Z,7.90
2023-02-05T09:15:57.836Z,7.90
2023-02-05T09:18:25.414Z,7.90
2023-02-05T09:20:53.706Z,7.90
2023-02-05T09:23:21.234Z,7.90
2023-02-05T09:25:49.590Z,7.90
2023-02-05T09:28:17.263Z,7.90
2023-02-05T09:30:44.716Z,7.90
2023-02-05T09:33:13.049Z,7.90
2023-02-05T09:35:40.590Z,7.90
2023-02-05T09:38:08.867Z,7.90
2023-02-05T09:40:45.103Z,7.80
2023-02-05T09:43:15.030Z,7.90
2023-02-05T09:45:49.198Z,7.80
2023-02-05T09:48:35.415Z,7.80
2023-02-05T09:51:02.950Z,7.80
2023-02-05T09:53:30.489Z,7.80
2023-02-05T09:55:58.094Z,8.00
2023-02-05T09:58:25.609Z,8.00
2023-02-05T10:01:05.081Z,8.00
2023-02-05T10:03:35.301Z,8.00
2023-02-05T10:06:24.325Z,8.00
2023-02-05T10:09:29.420Z,8.00
2023-02-05T10:12:03.146Z,8.00
2023-02-05T10:14:39.308Z,7.90
2023-02-05T10:17:25.637Z,7.90
2023-02-05T10:20:14.598Z,7.80
2023-02-05T10:22:56.853Z,7.80
2023-02-05T10:25:30.797Z,7.80
2023-02-05T10:28:04.624Z,7.80
2023-02-05T10:30:44.598Z,7.80
2023-02-05T10:33:18.164Z,7.80
2023-02-05T10:36:00.352Z,7.80
2023-02-05T10:38:28.241Z,7.70
2023-02-05T10:40:55.767Z,7.70
2023-02-05T10:43:45.285Z,7.60
2023-02-05T10:46:12.870Z,7.60
2023-02-05T10:48:45.904Z,7.60
2023-02-05T10:51:16.557Z,7.60
2023-02-05T10:53:44.081Z,7.60
2023-02-05T10:56:11.612Z,7.60
2023-02-05T10:58:45.677Z,7.60
2023-02-05T11:01:16.274Z,7.60
2023-02-05T11:04:02.100Z,7.60
2023-02-05T11:06:29.624Z,7.60
2023-02-05T11:08:57.919Z,7.80
2023-02-05T11:11:25.490Z,7.80
2023-02-05T11:13:53.010Z,7.80
2023-02-05T11:16:21.332Z,7.80
2023-02-05T11:18:48.875Z,7.80
2023-02-05T11:21:16.401Z,7.80
2023-02-05T11:23:44.709Z,7.80
2023-02-05T11:26:21.328Z,7.80
2023-02-05T11:28:48.863Z,7.80
2023-02-05T11:31:22.595Z,7.70
2023-02-05T11:33:50.068Z,7.90
2023-02-05T11:36:24.356Z,8.10
2023-02-05T11:38:54.540Z,8.10
2023-02-05T11:41:31.108Z,8.10
2023-02-05T11:43:58.582Z,8.00
2023-02-05T11:46:26.221Z,7.90
2023-02-05T11:48:59.226Z,8.10
2023-02-05T11:51:45.308Z,8.10
2023-02-05T11:54:12.834Z,8.10
2023-02-05T11:56:41.128Z,8.00
2023-02-05T11:59:17.589Z,8.00
2023-02-05T12:01:45.957Z,8.10
2023-02-05T12:04:13.431Z,8.10
2023-02-05T12:06:43.968Z,8.10
2023-02-05T12:09:11.501Z,8.10
2023-02-05T12:12:04.607Z,8.20
2023-02-05T12:14:34.835Z,8.20
2023-02-05T12:17:04.891Z,8.20
2023-02-05T12:19:32.598Z,8.20
2023-02-05T12:22:03.174Z,8.20
2023-02-05T12:24:50.072Z,8.10
2023-02-05T12:27:32.636Z,8.10
2023-02-05T12:30:21.299Z,8.20
2023-02-05T12:33:03.510Z,8.40
2023-02-05T12:36:04.533Z,8.30
2023-02-05T12:38:35.757Z,8.00
2023-02-05T12:41:16.160Z,7.90
2023-02-05T12:43:49.349Z,7.90
2023-02-05T12:46:26.623Z,7.80
2023-02-05T12:49:11.899Z,7.80
2023-02-05T12:51:57.613Z,7.80
2023-02-05T12:54:43.628Z,7.80
2023-02-05T12:57:13.927Z,7.80
2023-02-05T12:59:44.440Z,7.80
2023-02-05T13:02:32.868Z,7.80
2023-02-05T13:05:12.958Z,7.80
2023-02-05T13:07:43.164Z,7.80
2023-02-05T13:10:16.847Z,7.80
2023-02-05T13:12:44.652Z,7.80
2023-02-05T13:15:15.266Z,7.80
2023-02-05T13:17:42.801Z,7.80
2023-02-05T13:20:22.683Z,7.70
2023-02-05T13:23:05.083Z,7.80
2023-02-05T13:25:53.526Z,7.80
2023-02-05T13:28:41.804Z,7.70
2023-02-05T13:31:21.625Z,7.70
2023-02-05T13:33:49.786Z,7.70
2023-02-05T13:36:26.408Z,7.70
2023-02-05T13:38:59.436Z,7.70
2023-02-05T13:41:35.557Z,7.70
2023-02-05T13:44:08.594Z,7.70
2023-02-05T13:46:44.987Z,7.70
2023-02-05T13:49:49.782Z,7.70
2023-02-05T13:52:26.009Z,7.70
2023-02-05T13:55:00.311Z,7.70
2023-02-05T13:58:01.528Z,7.70
2023-02-05T14:00:29.067Z,7.70
2023-02-05T14:02:56.608Z,7.60
2023-02-05T14:05:33.347Z,7.60
2023-02-05T14:08:00.613Z,7.60
2023-02-05T14:10:34.264Z,7.60
2023-02-05T14:13:13.867Z,7.60
2023-02-05T14:15:41.445Z,7.60
2023-02-05T14:18:08.937Z,7.70
2023-02-05T14:20:36.510Z,7.70
2023-02-05T14:23:04.043Z,7.60
2023-02-05T14:25:43.426Z,7.60
2023-02-05T14:28:17.205Z,7.50
2023-02-05T14:30:51.517Z,7.60
2023-02-05T14:33:36.972Z,7.60
2023-02-05T14:36:22.495Z,7.60
2023-02-05T14:39:14.642Z,7.50
2023-02-05T14:41:42.222Z,7.50
2023-02-05T14:44:13.244Z,7.40
2023-02-05T14:46:58.833Z,7.40
2023-02-05T14:49:27.122Z,7.40
2023-02-05T14:51:55.508Z,7.40
2023-02-05T14:54:23.045Z,7.40
2023-02-05T14:56:54.167Z,7.50
2023-02-05T14:59:30.138Z,7.50
2023-02-05T15:01:57.664Z,7.50
2023-02-05T15:04:40.624Z,7.50
2023-02-05T15:07:08.138Z,7.40
2023-02-05T15:09:38.623Z,7.40
2023-02-05T15:12:25.807Z,7.30
2023-02-05T15:14:53.290Z,7.30
2023-02-05T15:17:30.544Z,7.30
2023-02-05T15:19:58.073Z,7.30
2023-02-05T15:22:34.249Z,7.30
2023-02-05T15:25:01.850Z,7.50
2023-02-05T15:27:41.102Z,7.50
2023-02-05T15:30:09.553Z,7.40
2023-02-05T15:32:37.070Z,7.40
2023-02-05T15:35:04.652Z,7.40
2023-02-05T15:37:38.216Z,7.30
2023-02-05T15:40:24.125Z,7.30
2023-02-05T15:42:52.213Z,7.50
2023-02-05T15:45:25.391Z,7.50
2023-02-05T15:48:01.710Z,7.50
2023-02-05T15:50:30.002Z,7.40
2023-02-05T15:52:58.289Z,7.30
2023-02-05T15:55:25.898Z,7.30
2023-02-05T15:57:53.408Z,7.30
2023-02-05T16:00:21.622Z,7.20
2023-02-05T16:02:54.917Z,7.20
2023-02-05T16:05:22.421Z,7.20
2023-02-05T16:07:49.952Z,7.20
2023-02-05T16:10:17.526Z,7.10
2023-02-05T16:13:06.921Z,7.10
2023-02-05T16:15:39.989Z,7.10
2023-02-05T16:18:13.887Z,7.00
2023-02-05T16:20:42.293Z,7.00
2023-02-05T16:23:09.867Z,7.00
2023-02-05T16:25:55.370Z,7.00
2023-02-05T16:28:38.271Z,7.00
2023-02-05T16:31:06.014Z,6.90
2023-02-05T16:33:37.114Z,6.90
2023-02-05T16:36:04.716Z,6.90
2023-02-05T16:38:32.980Z,6.90
2023-02-05T16:41:00.527Z,6.80
2023-02-05T16:43:36.802Z,6.90
2023-02-05T16:46:07.188Z,6.80
2023-02-05T16:48:47.140Z,6.80
2023-02-05T16:51:37.014Z,6.80
2023-02-05T16:54:04.490Z,6.80
2023-02-05T16:56:34.679Z,7.00
2023-02-05T16:59:02.271Z,7.00
2023-02-05T17:01:38.632Z,7.00
2023-02-05T17:04:06.152Z,7.00
2023-02-05T17:06:33.669Z,6.90
2023-02-05T17:09:02.033Z,6.90
2023-02-05T17:11:38.281Z,6.90
2023-02-05T17:14:33.313Z,6.90
2023-02-05T17:17:04.564Z,7.00
2023-02-05T17:19:32.877Z,7.00
2023-02-05T17:22:15.533Z,6.90
2023-02-05T17:24:43.042Z,6.90
2023-02-05T17:27:13.164Z,6.90
2023-02-05T17:29:40.737Z,6.80
2023-02-05T17:32:08.293Z,6.80
2023-02-05T17:34:35.817Z,6.80
2023-02-05T17:37:05.208Z,6.80
2023-02-05T17:39:32.474Z,6.80
2023-02-05T17:42:05.622Z,6.80
2023-02-05T17:44:33.195Z,6.70
2023-02-05T17:47:03.407Z,6.70
2023-02-05T17:49:30.942Z,6.70
2023-02-05T17:51:59.373Z,6.70
2023-02-05T17:54:27.683Z,6.80
2023-02-05T17:56:55.213Z,6.80
2023-02-05T17:59:22.804Z,6.80
2023-02-05T18:01:50.324Z,6.70
2023-02-05T18:04:21.177Z,6.70
2023-02-05T18:06:49.267Z,6.70
2023-02-05T18:09:16.796Z,6.70
2023-02-05T18:11:45.097Z,6.70
2023-02-05T18:14:12.693Z,6.70
2023-02-05T18:16:40.268Z,6.70
2023-02-05T18:19:07.745Z,6.60
2023-02-05T18:21:36.070Z,6.60
2023-02-05T18:24:03.604Z,6.60
2023-02-05T18:26:31.143Z,6.60
2023-02-05T18:28:59.492Z,6.60
2023-02-05T18:31:27.183Z,6.60
2023-02-05T18:33:54.534Z,6.60
2023-02-05T18:36:22.889Z,6.60
2023-02-05T18:38:50.412Z,6.50
2023-02-05T18:41:17.997Z,6.50
2023-02-05T18:43:45.543Z,6.50
2023-02-05T18:46:13.128Z,6.50
2023-02-05T18:48:43.040Z,6.50
2023-02-05T18:51:10.623Z,6.50
2023-02-05T18:53:38.925Z,6.50
2023-02-05T18:56:06.590Z,6.50
2023-02-05T18:58:34.154Z,6.50
2023-02-05T19:01:13.461Z,6.50
2023-02-05T19:03:41.367Z,6.50
2023-02-05T19:06:08.777Z,6.50
2023-02-05T19:08:37.070Z,6.50
2023-02-05T19:11:07.738Z,6.50
2023-02-05T19:13:37.114Z,6.50
2023-02-05T19:16:06.375Z,6.50
2023-02-05T19:18:34.508Z,6.50
2023-02-05T19:21:04.742Z,6.50
2023-02-05T19:23:32.257Z,6.50
2023-02-05T19:25:59.841Z,6.50
2023-02-05T19:28:27.375Z,6.60
2023-02-05T19:30:54.947Z,6.70
2023-02-05T19:33:23.831Z,6.60
2023-02-05T19:35:51.386Z,6.60
2023-02-05T19:38:18.936Z,6.50
2023-02-05T19:40:46.530Z,6.50
2023-02-05T19:43:14.077Z,6.50
2023-02-05T19:45:41.611Z,6.40
2023-02-05T19:48:09.178Z,6.40
2023-02-05T19:50:37.072Z,6.40
2023-02-05T19:53:04.236Z,6.30
2023-02-05T19:55:34.511Z,6.30
2023-02-05T19:58:02.787Z,6.20
2023-02-05T20:00:30.307Z,6.20
2023-02-05T20:02:57.874Z,6.20
2023-02-05T20:05:25.419Z,6.10
2023-02-05T20:07:52.957Z,6.10
2023-02-05T20:10:20.531Z,6.10
2023-02-05T20:12:50.731Z,6.10
2023-02-05T20:15:18.270Z,6.10
2023-02-05T20:17:47.280Z,6.10
2023-02-05T20:20:28.067Z,6.30
2023-02-05T20:22:42.277Z,6.30
2023-02-05T20:25:09.862Z,6.30
2023-02-05T20:27:37.392Z,6.20
2023-02-05T20:30:23.029Z,6.20
2023-02-05T20:32:51.259Z,6.20
2023-02-05T20:35:18.802Z,6.10
2023-02-05T20:37:47.142Z,6.10
2023-02-05T20:40:14.703Z,6.10
2023-02-05T20:42:42.188Z,6.10
2023-02-05T20:45:09.925Z,6.10
2023-02-05T20:47:37.448Z,6.00
2023-02-05T20:50:05.044Z,6.00
2023-02-05T20:52:32.628Z,6.20
2023-02-05T20:55:00.942Z,6.20
2023-02-05T20:57:28.492Z,6.20
2023-02-05T20:59:56.058Z,6.20
2023-02-05T21:02:23.586Z,6.10
2023-02-05T21:04:52.834Z,6.10
2023-02-05T21:07:19.460Z,6.10
2023-02-05T21:09:46.992Z,6.10
2023-02-05T21:12:14.525Z,6.20
2023-02-05T21:14:43.131Z,6.10
2023-02-05T21:17:10.678Z,6.10
2023-02-05T21:19:39.923Z,6.10
2023-02-05T21:22:07.670Z,6.10
2023-02-05T21:24:35.198Z,6.10
2023-02-05T21:27:03.507Z,6.10
2023-02-05T21:29:31.073Z,6.00
2023-02-05T21:31:58.630Z,6.10
2023-02-05T21:34:26.163Z,6.00
2023-02-05T21:36:54.515Z,6.00
2023-02-05T21:39:22.042Z,6.00
2023-02-05T21:41:49.563Z,6.00
2023-02-05T21:44:17.958Z,6.00
2023-02-05T21:46:45.506Z,6.00
2023-02-05T21:49:13.780Z,6.00
2023-02-05T21:51:41.331Z,5.90
2023-02-05T21:54:08.873Z,6.00
2023-02-05T21:56:37.147Z,6.00
2023-02-05T21:59:05.521Z,6.00
2023-02-05T22:01:33.034Z,6.00
2023-02-05T22:04:00.566Z,6.00
2023-02-05T22:06:28.145Z,6.00
2023-02-05T22:08:55.683Z,6.00
2023-02-05T22:11:25.231Z,6.20
2023-02-05T22:13:53.732Z,6.20
2023-02-05T22:16:21.307Z,6.20
2023-02-05T22:18:48.793Z,6.10
2023-02-05T22:21:16.387Z,6.10
2023-02-05T22:23:43.911Z,6.10
2023-02-05T22:26:11.451Z,6.00
2023-02-05T22:28:39.779Z,6.00
2023-02-05T22:31:07.321Z,6.00
2023-02-05T22:33:34.843Z,6.00
2023-02-05T22:36:03.460Z,6.00
2023-02-05T22:38:31.013Z,6.00
2023-02-05T22:40:58.584Z,6.00
2023-02-05T22:43:29.548Z,6.00
2023-02-05T22:45:57.142Z,6.10
2023-02-05T22:48:24.637Z,6.10
2023-02-05T22:50:52.210Z,6.10
2023-02-05T22:53:19.727Z,6.10
2023-02-05T22:55:48.030Z,6.00
2023-02-05T22:58:15.641Z,6.00
2023-02-05T23:00:43.166Z,6.00
2023-02-05T23:03:10.799Z,6.00
2023-02-05T23:05:38.294Z,6.10
2023-02-05T23:08:05.817Z,6.20
2023-02-05T23:10:33.352Z,6.10
2023-02-05T23:13:01.692Z,6.10
2023-02-05T23:15:29.217Z,6.10
2023-02-05T23:17:56.752Z,6.10
2023-02-05T23:20:24.326Z,6.30
2023-02-05T23:22:51.850Z,6.20
2023-02-05T23:25:19.380Z,6.20
2023-02-05T23:27:47.008Z,6.20
2023-02-05T23:30:14.527Z,6.10
2023-02-05T23:32:42.042Z,6.10
2023-02-05T23:35:09.983Z,6.10
2023-02-05T23:37:37.509Z,6.00
2023-02-05T23:40:05.061Z,6.00
2023-02-05T23:42:32.632Z,6.00
2023-02-05T23:45:00.957Z,6.20
2023-02-05T23:47:28.483Z,6.20
2023-02-05T23:49:56.814Z,6.10
2023-02-05T23:52:24.343Z,6.10
2023-02-05T23:54:51.871Z,6.10
2023-02-05T23:57:20.221Z,6.00
2023-02-05T23:59:47.755Z,6.00
